Time;durP1;ratioP1;P1;durP2;ratioP2;P2;SDS_P1;SDS_P2;PMS_P1;PMS_P2;Temp;Humidity;BMP_temperature;BMP_pressure;BME280_temperature;BME280_humidity;BME280_pressure;Samples;Min_cycle;Max_cycle;Signal;HPM_P1;HPM_P2
2023/08/04 00:00:19;;;;;;;;;;;18.00;99.90;;;;;;4972202;28;19969;-62
2023/08/04 00:02:46;;;;;;;;;;;18.00;99.90;;;;;;4971776;28;20014;-61
2023/08/04 00:05:12;;;;;;;;;;;18.00;99.90;;;;;;4971578;28;19922;-61
2023/08/04 00:07:39;;;;;;;;;;;18.00;99.90;;;;;;4971970;28;19926;-61
2023/08/04 00:10:06;;;;;;;;;;;18.00;99.90;;;;;;4972330;28;19976;-61
2023/08/04 00:12:32;;;;;;;;;;;17.90;99.90;;;;;;4971821;28;19926;-61
2023/08/04 00:14:59;;;;;;;;;;;17.90;99.90;;;;;;4972052;28;19969;-61
2023/08/04 00:17:26;;;;;;;;;;;17.90;99.90;;;;;;4971584;28;19929;-59
2023/08/04 00:19:53;;;;;;;;;;;17.80;99.90;;;;;;4971847;28;19922;-60
2023/08/04 00:22:19;;;;;;;;;;;17.80;99.90;;;;;;4972134;28;19964;-60
2023/08/04 00:24:46;;;;;;;;;;;17.80;99.90;;;;;;4971587;28;19922;-60
2023/08/04 00:27:13;;;;;;;;;;;17.80;99.90;;;;;;4971847;28;19969;-60
2023/08/04 00:29:39;;;;;;;;;;;17.80;99.90;;;;;;4971247;28;19922;-60
2023/08/04 00:32:06;;;;;;;;;;;17.80;99.90;;;;;;4971119;28;19926;-60
2023/08/04 00:34:33;;;;;;;;;;;17.80;99.90;;;;;;4971297;28;19969;-60
2023/08/04 00:36:59;;;;;;;;;;;17.80;99.90;;;;;;4971760;28;19976;-60
2023/08/04 00:39:26;;;;;;;;;;;17.80;99.90;;;;;;4971297;28;19960;-61
2023/08/04 00:41:53;;;;;;;;;;;17.70;99.90;;;;;;4971289;28;19992;-61
2023/08/04 00:44:19;;;;;;;;;;;17.70;99.90;;;;;;4971139;28;19922;-60
2023/08/04 00:46:46;;;;;;;;;;;17.70;99.90;;;;;;4971580;28;19977;-60
2023/08/04 00:49:12;;;;;;;;;;;17.70;99.90;;;;;;4969487;28;19922;-61
2023/08/04 00:51:39;;;;;;;;;;;17.60;99.90;;;;;;4971041;28;20000;-61
2023/08/04 00:54:06;;;;;;;;;;;17.60;99.90;;;;;;4971064;28;19930;-60
2023/08/04 00:56:32;;;;;;;;;;;17.60;99.90;;;;;;4970104;28;19922;-60
2023/08/04 00:58:59;;;;;;;;;;;17.50;99.90;;;;;;4969863;28;19922;-60
2023/08/04 01:01:26;;;;;;;;;;;17.60;99.90;;;;;;4969581;28;19922;-60
2023/08/04 01:03:53;;;;;;;;;;;17.60;99.90;;;;;;4971485;28;20005;-60
2023/08/04 01:06:19;;;;;;;;;;;17.60;99.90;;;;;;4967223;28;19922;-59
2023/08/04 01:08:53;;;;;;;;;;;17.60;99.90;;;;;;4971118;28;20185;-59
2023/08/04 01:11:20;;;;;;;;;;;17.60;99.90;;;;;;4968162;28;20029;-59
2023/08/04 01:13:47;;;;;;;;;;;17.60;99.90;;;;;;4970875;28;19944;-59
2023/08/04 01:16:14;;;;;;;;;;;17.50;99.90;;;;;;4969119;28;19976;-59
2023/08/04 01:18:40;;;;;;;;;;;17.50;99.90;;;;;;4971344;28;19944;-60
2023/08/04 01:21:07;;;;;;;;;;;17.50;99.90;;;;;;4970535;28;19957;-59
2023/08/04 01:23:34;;;;;;;;;;;17.50;99.90;;;;;;4970746;28;19922;-59
2023/08/04 01:26:02;;;;;;;;;;;17.40;99.90;;;;;;4625134;28;9999982;-59
2023/08/04 01:28:29;;;;;;;;;;;17.40;99.90;;;;;;4968988;28;19988;-59
2023/08/04 01:30:55;;;;;;;;;;;17.40;99.90;;;;;;4970502;28;19922;-59
2023/08/04 01:33:22;;;;;;;;;;;17.40;99.90;;;;;;4970681;28;19922;-60
2023/08/04 01:35:50;;;;;;;;;;;17.40;99.90;;;;;;4970205;28;19926;-59
2023/08/04 01:38:16;;;;;;;;;;;17.40;99.90;;;;;;4970702;28;19969;-59
2023/08/04 01:40:43;;;;;;;;;;;17.40;99.90;;;;;;4970119;28;20352;-59
2023/08/04 01:43:10;;;;;;;;;;;17.40;99.90;;;;;;4970371;28;19977;-59
2023/08/04 01:45:36;;;;;;;;;;;17.40;99.90;;;;;;4970051;28;20038;-59
2023/08/04 01:48:03;;;;;;;;;;;17.20;99.90;;;;;;4970187;28;19953;-60
2023/08/04 01:50:30;;;;;;;;;;;17.10;99.90;;;;;;4969846;28;19922;-59
2023/08/04 01:52:57;;;;;;;;;;;17.10;99.90;;;;;;4969980;28;19993;-59
2023/08/04 01:55:23;;;;;;;;;;;17.00;99.90;;;;;;4970216;28;19922;-59
2023/08/04 01:57:50;;;;;;;;;;;17.00;99.90;;;;;;4969953;28;19977;-60
2023/08/04 02:00:18;;;;;;;;;;;17.00;99.90;;;;;;4970411;28;19925;-59
2023/08/04 02:02:45;;;;;;;;;;;17.00;99.90;;;;;;4969899;28;19945;-59
2023/08/04 02:05:12;;;;;;;;;;;17.00;99.90;;;;;;4970209;28;19922;-60
2023/08/04 02:07:38;;;;;;;;;;;17.00;99.90;;;;;;4969746;28;19966;-61
2023/08/04 02:10:05;;;;;;;;;;;17.00;99.90;;;;;;4970019;28;20397;-59
2023/08/04 02:12:32;;;;;;;;;;;17.00;99.90;;;;;;4969621;28;19928;-60
2023/08/04 02:15:00;;;;;;;;;;;16.90;99.90;;;;;;4969751;28;20384;-61
2023/08/04 02:17:27;;;;;;;;;;;16.90;99.90;;;;;;4969390;28;19937;-60
2023/08/04 02:19:53;;;;;;;;;;;16.90;99.90;;;;;;4970075;28;20024;-60
2023/08/04 02:22:20;;;;;;;;;;;16.90;99.90;;;;;;4969959;28;20393;-60
2023/08/04 02:24:47;;;;;;;;;;;16.90;99.90;;;;;;4969976;28;19984;-60
2023/08/04 02:27:13;;;;;;;;;;;16.80;99.90;;;;;;4969846;28;19988;-60
2023/08/04 02:29:40;;;;;;;;;;;16.80;99.90;;;;;;4969925;28;19969;-60
2023/08/04 02:32:07;;;;;;;;;;;16.80;99.90;;;;;;4969433;28;19922;-60
2023/08/04 02:34:33;;;;;;;;;;;16.80;99.90;;;;;;4984585;28;19926;-60
2023/08/04 02:37:00;;;;;;;;;;;16.80;99.90;;;;;;4969723;28;19929;-60
2023/08/04 02:39:27;;;;;;;;;;;16.70;99.90;;;;;;4969645;28;19929;-60
2023/08/04 02:41:53;;;;;;;;;;;16.70;99.90;;;;;;4969450;28;19926;-60
2023/08/04 02:44:20;;;;;;;;;;;16.70;99.90;;;;;;4969304;28;19962;-60
2023/08/04 02:46:47;;;;;;;;;;;16.80;99.90;;;;;;4969757;28;20205;-60
2023/08/04 02:49:13;;;;;;;;;;;16.80;99.90;;;;;;4969302;28;20372;-60
2023/08/04 02:51:40;;;;;;;;;;;16.90;99.90;;;;;;4969522;28;19922;-60
2023/08/04 02:54:08;;;;;;;;;;;16.80;99.90;;;;;;4969382;28;19965;-60
2023/08/04 02:56:35;;;;;;;;;;;16.80;99.90;;;;;;4969817;28;19980;-61
2023/08/04 02:59:02;;;;;;;;;;;16.70;99.90;;;;;;4969420;28;20263;-60
2023/08/04 03:01:28;;;;;;;;;;;16.70;99.90;;;;;;4969675;28;19968;-60
2023/08/04 03:03:55;;;;;;;;;;;16.70;99.90;;;;;;4968622;28;19961;-60
2023/08/04 03:06:22;;;;;;;;;;;16.70;99.90;;;;;;4969670;28;19926;-60
2023/08/04 03:08:48;;;;;;;;;;;16.80;99.90;;;;;;4969514;28;19922;-59
2023/08/04 03:11:15;;;;;;;;;;;16.80;99.90;;;;;;4969181;28;19984;-60
2023/08/04 03:13:42;;;;;;;;;;;16.70;99.90;;;;;;4969157;28;19961;-60
2023/08/04 03:16:08;;;;;;;;;;;16.70;99.90;;;;;;4969510;28;19922;-60
2023/08/04 03:18:35;;;;;;;;;;;16.70;99.90;;;;;;4969295;28;21094;-60
2023/08/04 03:21:02;;;;;;;;;;;16.70;99.90;;;;;;4969416;28;19966;-60
2023/08/04 03:23:29;;;;;;;;;;;16.80;99.90;;;;;;4969451;28;19938;-60
2023/08/04 03:25:56;;;;;;;;;;;16.80;99.90;;;;;;4969195;28;19939;-60
2023/08/04 03:28:23;;;;;;;;;;;16.80;99.90;;;;;;4969957;28;20066;-60
2023/08/04 03:30:49;;;;;;;;;;;16.70;99.90;;;;;;4972445;28;19922;-60
2023/08/04 03:33:16;;;;;;;;;;;16.80;99.90;;;;;;4972648;28;19926;-60
2023/08/04 03:35:43;;;;;;;;;;;16.80;99.90;;;;;;4972541;28;19926;-60
2023/08/04 03:38:11;;;;;;;;;;;16.80;99.90;;;;;;4972884;28;19969;-60
2023/08/04 03:40:38;;;;;;;;;;;16.70;99.90;;;;;;4972242;28;19922;-60
2023/08/04 03:43:05;;;;;;;;;;;16.60;99.90;;;;;;4972629;28;19922;-59
2023/08/04 03:45:32;;;;;;;;;;;16.40;99.90;;;;;;4972092;28;19957;-59
2023/08/04 03:47:58;;;;;;;;;;;16.40;99.90;;;;;;4972471;28;19922;-59
2023/08/04 03:50:25;;;;;;;;;;;16.40;99.90;;;;;;4971881;28;20389;-60
2023/08/04 03:52:52;;;;;;;;;;;16.30;99.90;;;;;;4971208;28;19985;-59
2023/08/04 03:55:19;;;;;;;;;;;16.30;99.90;;;;;;4972116;28;19926;-59
2023/08/04 03:57:45;;;;;;;;;;;16.30;99.90;;;;;;4970351;28;19933;-59
2023/08/04 04:00:12;;;;;;;;;;;16.20;99.90;;;;;;4966708;28;19929;-59
2023/08/04 04:02:39;;;;;;;;;;;16.20;99.90;;;;;;4971993;28;19977;-59
2023/08/04 04:05:06;;;;;;;;;;;16.20;99.90;;;;;;4965955;28;19922;-60
2023/08/04 04:07:32;;;;;;;;;;;16.20;99.90;;;;;;4962686;28;20392;-58
2023/08/04 04:09:59;;;;;;;;;;;16.20;99.90;;;;;;4971742;28;19922;-59
2023/08/04 04:12:26;;;;;;;;;;;16.10;99.90;;;;;;4972109;28;19922;-60
2023/08/04 04:14:53;;;;;;;;;;;16.00;99.90;;;;;;4972158;28;20381;-59
2023/08/04 04:17:20;;;;;;;;;;;16.00;99.90;;;;;;4971617;28;19922;-60
2023/08/04 04:19:46;;;;;;;;;;;15.90;99.90;;;;;;4971788;28;19957;-60
2023/08/04 04:22:13;;;;;;;;;;;15.90;99.90;;;;;;4971478;28;19922;-60
2023/08/04 04:24:40;;;;;;;;;;;15.90;99.90;;;;;;4971682;28;19922;-60
2023/08/04 04:27:07;;;;;;;;;;;15.80;99.90;;;;;;4971244;28;19984;-59
2023/08/04 04:29:34;;;;;;;;;;;15.90;99.90;;;;;;4972043;28;19969;-59
2023/08/04 04:32:01;;;;;;;;;;;15.80;99.90;;;;;;4971331;28;19929;-59
2023/08/04 04:34:28;;;;;;;;;;;15.90;99.90;;;;;;4971629;28;19922;-60
2023/08/04 04:36:57;;;;;;;;;;;15.90;99.90;;;;;;4971207;28;20373;-59
2023/08/04 04:39:25;;;;;;;;;;;15.90;99.90;;;;;;4971018;28;19922;-60
2023/08/04 04:41:51;;;;;;;;;;;15.80;99.90;;;;;;4970213;28;20365;-60
2023/08/04 04:44:18;;;;;;;;;;;15.80;99.90;;;;;;4971332;28;20340;-59
2023/08/04 04:46:45;;;;;;;;;;;15.80;99.90;;;;;;4971211;28;19930;-59
2023/08/04 04:49:12;;;;;;;;;;;15.80;99.90;;;;;;4971270;28;19985;-59
2023/08/04 04:51:38;;;;;;;;;;;15.80;99.90;;;;;;4970924;28;19921;-60
2023/08/04 04:54:05;;;;;;;;;;;15.80;99.90;;;;;;4970622;28;19980;-59
2023/08/04 04:56:31;;;;;;;;;;;15.80;99.90;;;;;;4971054;28;19984;-60
2023/08/04 04:58:58;;;;;;;;;;;15.80;99.90;;;;;;4970072;28;19984;-60
2023/08/04 05:01:25;;;;;;;;;;;15.80;99.90;;;;;;4970507;28;19922;-60
2023/08/04 05:03:52;;;;;;;;;;;15.80;99.90;;;;;;4970109;28;19961;-59
2023/08/04 05:06:18;;;;;;;;;;;15.80;99.90;;;;;;4971187;28;19929;-60
2023/08/04 05:08:45;;;;;;;;;;;15.80;99.90;;;;;;4970375;28;19926;-59
2023/08/04 05:11:12;;;;;;;;;;;15.90;99.90;;;;;;4970859;28;19969;-59
2023/08/04 05:13:41;;;;;;;;;;;15.90;99.90;;;;;;4970287;28;19929;-59
2023/08/04 05:16:08;;;;;;;;;;;15.90;99.90;;;;;;4970981;28;19926;-61
2023/08/04 05:18:35;;;;;;;;;;;15.90;99.90;;;;;;4970176;28;20440;-59
2023/08/04 05:21:03;;;;;;;;;;;15.90;99.90;;;;;;4970376;28;19923;-59
2023/08/04 05:23:29;;;;;;;;;;;15.90;99.90;;;;;;4969945;28;19922;-60
2023/08/04 05:25:56;;;;;;;;;;;15.90;99.90;;;;;;4970449;28;19922;-60
2023/08/04 05:28:24;;;;;;;;;;;15.90;99.90;;;;;;4970029;28;19938;-60
2023/08/04 05:31:00;;;;;;;;;;;15.90;99.90;;;;;;4959522;28;20396;-60
2023/08/04 05:33:27;;;;;;;;;;;15.90;99.90;;;;;;4981897;28;19922;-59
2023/08/04 05:35:53;;;;;;;;;;;15.90;99.90;;;;;;4970255;28;19922;-60
2023/08/04 05:38:21;;;;;;;;;;;15.90;99.90;;;;;;4970081;28;19929;-60
2023/08/04 05:40:48;;;;;;;;;;;15.90;99.90;;;;;;4970230;28;19976;-59
2023/08/04 05:43:14;;;;;;;;;;;15.90;99.90;;;;;;4970347;28;19926;-59
2023/08/04 05:45:42;;;;;;;;;;;16.00;99.90;;;;;;4970060;28;19922;-60
2023/08/04 05:48:09;;;;;;;;;;;16.00;99.90;;;;;;4970375;28;19922;-59
2023/08/04 05:50:36;;;;;;;;;;;16.00;99.90;;;;;;4969511;28;19921;-60
2023/08/04 05:53:02;;;;;;;;;;;16.00;99.90;;;;;;4950617;29;19968;-59
2023/08/04 05:55:29;;;;;;;;;;;16.00;99.90;;;;;;4967595;28;19922;-61
2023/08/04 05:57:56;;;;;;;;;;;16.10;99.90;;;;;;4969499;28;20369;-60
2023/08/04 06:00:23;;;;;;;;;;;16.10;99.90;;;;;;4969343;28;20382;-59
2023/08/04 06:02:49;;;;;;;;;;;16.10;99.90;;;;;;4969922;28;19985;-59
2023/08/04 06:05:16;;;;;;;;;;;16.00;99.90;;;;;;4967827;28;19929;-60
2023/08/04 06:07:43;;;;;;;;;;;16.10;99.90;;;;;;4969997;28;19980;-60
2023/08/04 06:10:10;;;;;;;;;;;16.10;99.90;;;;;;4969542;28;19992;-60
2023/08/04 06:12:36;;;;;;;;;;;16.00;99.90;;;;;;4969766;28;20069;-60
2023/08/04 06:15:03;;;;;;;;;;;16.10;99.90;;;;;;4969781;28;19985;-60
2023/08/04 06:17:30;;;;;;;;;;;16.30;99.90;;;;;;4969477;28;19925;-60
2023/08/04 06:19:57;;;;;;;;;;;16.40;99.90;;;;;;4972319;28;19961;-60
2023/08/04 06:22:24;;;;;;;;;;;16.40;99.90;;;;;;4967358;28;19929;-60
2023/08/04 06:24:51;;;;;;;;;;;16.50;99.90;;;;;;4969565;28;19991;-60
2023/08/04 06:27:17;;;;;;;;;;;16.50;99.90;;;;;;4968132;28;19960;-60
2023/08/04 06:29:44;;;;;;;;;;;16.50;99.90;;;;;;4969152;28;20428;-60
2023/08/04 06:32:11;;;;;;;;;;;16.50;99.90;;;;;;4967590;28;20248;-60
2023/08/04 06:34:37;;;;;;;;;;;16.50;99.90;;;;;;4969698;28;19985;-60
2023/08/04 06:37:04;;;;;;;;;;;16.40;99.90;;;;;;4969610;28;20290;-60
2023/08/04 06:39:31;;;;;;;;;;;16.40;99.90;;;;;;4973805;28;19977;-61
2023/08/04 06:41:57;;;;;;;;;;;16.40;99.90;;;;;;4971593;28;19925;-61
2023/08/04 06:44:24;;;;;;;;;;;16.50;99.90;;;;;;4976026;28;20066;-60
2023/08/04 06:46:51;;;;;;;;;;;16.50;99.90;;;;;;4970062;28;19925;-61
2023/08/04 06:49:17;;;;;;;;;;;16.50;99.90;;;;;;4971969;28;20004;-61
2023/08/04 06:51:44;;;;;;;;;;;16.60;99.90;;;;;;4969098;28;19993;-60
2023/08/04 06:54:11;;;;;;;;;;;16.60;99.90;;;;;;4969042;28;19926;-61
2023/08/04 06:56:38;;;;;;;;;;;16.50;99.90;;;;;;4968360;28;20433;-60
2023/08/04 06:59:05;;;;;;;;;;;16.50;99.90;;;;;;4968674;28;19922;-58
2023/08/04 07:01:31;;;;;;;;;;;16.50;99.90;;;;;;4968729;28;20021;-58
2023/08/04 07:03:58;;;;;;;;;;;16.50;99.90;;;;;;4970318;28;19925;-58
2023/08/04 07:06:25;;;;;;;;;;;16.50;99.90;;;;;;4972153;28;19925;-59
2023/08/04 07:08:52;;;;;;;;;;;16.50;99.90;;;;;;4966848;28;19922;-59
2023/08/04 07:11:18;;;;;;;;;;;16.50;99.90;;;;;;4972121;28;19929;-59
2023/08/04 07:13:45;;;;;;;;;;;16.40;99.90;;;;;;4970910;28;20396;-60
2023/08/04 07:16:12;;;;;;;;;;;16.50;99.90;;;;;;4971457;28;19922;-59
2023/08/04 07:18:39;;;;;;;;;;;16.50;99.90;;;;;;4971604;28;19922;-58
2023/08/04 07:21:05;;;;;;;;;;;16.50;99.90;;;;;;4973885;28;19921;-58
2023/08/04 07:23:32;;;;;;;;;;;16.60;99.90;;;;;;4972088;28;19926;-59
2023/08/04 07:25:59;;;;;;;;;;;16.60;99.90;;;;;;4970853;28;19930;-59
2023/08/04 07:28:26;;;;;;;;;;;16.60;99.90;;;;;;4971532;28;19961;-59
2023/08/04 07:30:52;;;;;;;;;;;16.60;99.90;;;;;;4972228;28;19922;-59
2023/08/04 07:33:19;;;;;;;;;;;16.70;99.90;;;;;;4972365;28;20389;-59
2023/08/04 07:35:56;;;;;;;;;;;16.80;99.90;;;;;;4978095;28;19925;-60
2023/08/04 07:38:27;;;;;;;;;;;16.80;99.90;;;;;;4973782;28;20073;-59
2023/08/04 07:40:54;;;;;;;;;;;16.80;99.90;;;;;;4979748;28;19948;-59
2023/08/04 07:43:21;;;;;;;;;;;16.90;99.90;;;;;;4972822;28;19930;-61
2023/08/04 07:45:47;;;;;;;;;;;16.90;99.90;;;;;;4979177;28;19925;-60
2023/08/04 07:48:14;;;;;;;;;;;17.00;99.90;;;;;;4976769;28;19977;-59
2023/08/04 07:50:41;;;;;;;;;;;17.10;99.90;;;;;;4975091;28;19922;-59
2023/08/04 07:53:08;;;;;;;;;;;17.00;99.90;;;;;;4971368;28;19969;-59
2023/08/04 07:55:36;;;;;;;;;;;16.90;99.90;;;;;;4975930;28;19921;-59
2023/08/04 07:58:03;;;;;;;;;;;16.90;99.90;;;;;;4972585;28;19981;-60
2023/08/04 08:00:30;;;;;;;;;;;16.90;99.90;;;;;;4977762;28;19929;-60
2023/08/04 08:02:57;;;;;;;;;;;17.00;99.90;;;;;;4972719;28;20384;-59
2023/08/04 08:05:23;;;;;;;;;;;17.00;99.90;;;;;;4970433;28;19969;-60
2023/08/04 08:07:50;;;;;;;;;;;17.00;99.90;;;;;;4971160;28;19922;-59
2023/08/04 08:10:18;;;;;;;;;;;17.00;99.90;;;;;;4970725;28;19926;-59
2023/08/04 08:12:44;;;;;;;;;;;17.00;99.90;;;;;;4970350;28;19926;-59
2023/08/04 08:15:11;;;;;;;;;;;17.10;99.90;;;;;;4969954;28;19961;-60
2023/08/04 08:17:38;;;;;;;;;;;17.20;99.90;;;;;;4971332;28;19930;-60
2023/08/04 08:20:05;;;;;;;;;;;17.10;99.90;;;;;;4970181;28;19948;-59
2023/08/04 08:22:32;;;;;;;;;;;17.20;99.90;;;;;;4971225;28;20382;-59
2023/08/04 08:24:59;;;;;;;;;;;17.30;99.90;;;;;;4970842;28;19934;-60
2023/08/04 08:27:25;;;;;;;;;;;17.40;99.90;;;;;;4970820;28;20265;-61
2023/08/04 08:29:52;;;;;;;;;;;17.40;99.90;;;;;;4971125;28;19922;-59
2023/08/04 08:32:19;;;;;;;;;;;17.40;99.90;;;;;;4971015;28;20366;-58
2023/08/04 08:34:46;;;;;;;;;;;17.30;99.90;;;;;;4970878;28;19921;-59
2023/08/04 08:37:12;;;;;;;;;;;17.30;99.90;;;;;;4972398;28;19961;-57
2023/08/04 08:39:39;;;;;;;;;;;17.40;99.90;;;;;;4970386;28;19957;-58
2023/08/04 08:42:06;;;;;;;;;;;17.40;99.90;;;;;;4971008;28;19929;-58
2023/08/04 08:44:32;;;;;;;;;;;17.50;99.90;;;;;;4969989;28;19980;-58
2023/08/04 08:46:59;;;;;;;;;;;17.50;99.90;;;;;;4969608;28;19922;-58
2023/08/04 08:49:26;;;;;;;;;;;17.50;99.90;;;;;;4970842;28;19953;-58
2023/08/04 08:51:54;;;;;;;;;;;17.70;99.90;;;;;;4969929;28;20513;-61
2023/08/04 08:54:20;;;;;;;;;;;17.70;99.90;;;;;;4968188;28;19922;-57
2023/08/04 08:56:48;;;;;;;;;;;17.80;99.90;;;;;;4967573;28;19992;-58
2023/08/04 08:59:15;;;;;;;;;;;17.70;99.90;;;;;;4949536;29;19989;-57
2023/08/04 09:01:41;;;;;;;;;;;17.70;99.90;;;;;;4982694;28;19930;-58
2023/08/04 09:04:08;;;;;;;;;;;17.70;99.90;;;;;;4970168;28;19926;-57
2023/08/04 09:06:35;;;;;;;;;;;17.70;99.90;;;;;;4969953;28;19922;-58
2023/08/04 09:09:02;;;;;;;;;;;17.70;99.90;;;;;;4970789;28;19976;-57
2023/08/04 09:11:29;;;;;;;;;;;17.70;99.90;;;;;;4970424;28;19926;-57
2023/08/04 09:13:56;;;;;;;;;;;17.70;99.90;;;;;;4970607;28;20432;-57
2023/08/04 09:16:36;;;;;;;;;;;17.80;99.90;;;;;;4969956;28;20273;-59
2023/08/04 09:19:04;;;;;;;;;;;17.80;99.90;;;;;;4970642;28;20103;-58
2023/08/04 09:21:31;;;;;;;;;;;17.90;99.90;;;;;;4969850;28;20358;-58
2023/08/04 09:23:58;;;;;;;;;;;18.00;99.90;;;;;;4970893;28;19922;-58
2023/08/04 09:26:24;;;;;;;;;;;18.10;99.90;;;;;;4968126;28;19944;-58
2023/08/04 09:29:04;;;;;;;;;;;18.30;99.90;;;;;;4969195;28;19929;-58
2023/08/04 09:31:35;;;;;;;;;;;18.40;99.90;;;;;;4969160;28;19929;-58
2023/08/04 09:34:03;;;;;;;;;;;18.40;99.90;;;;;;4970524;28;19926;-57
2023/08/04 09:36:30;;;;;;;;;;;18.50;99.90;;;;;;4967557;28;20396;-58
2023/08/04 09:39:04;;;;;;;;;;;18.60;99.90;;;;;;4972482;28;20005;-58
2023/08/04 09:41:33;;;;;;;;;;;18.70;99.90;;;;;;4969851;28;19980;-58
2023/08/04 09:44:04;;;;;;;;;;;18.60;99.90;;;;;;4966719;28;19985;-58
2023/08/04 09:46:30;;;;;;;;;;;18.50;99.90;;;;;;4970083;28;20076;-56
2023/08/04 09:48:58;;;;;;;;;;;18.50;99.90;;;;;;4970410;28;19929;-57
2023/08/04 09:51:25;;;;;;;;;;;18.50;99.90;;;;;;4969699;28;19922;-57
2023/08/04 09:53:52;;;;;;;;;;;18.40;99.90;;;;;;4969909;28;19921;-59
2023/08/04 09:56:19;;;;;;;;;;;18.30;99.90;;;;;;4970081;28;19922;-57
2023/08/04 09:58:47;;;;;;;;;;;18.40;99.90;;;;;;4969486;28;19965;-57
2023/08/04 10:01:14;;;;;;;;;;;18.50;99.90;;;;;;4969807;28;20017;-58
2023/08/04 10:03:42;;;;;;;;;;;18.60;99.90;;;;;;4969622;28;20227;-57
2023/08/04 10:06:09;;;;;;;;;;;18.60;99.90;;;;;;4969539;28;20297;-60
2023/08/04 10:08:39;;;;;;;;;;;18.40;99.90;;;;;;4969446;28;19973;-58
2023/08/04 10:11:06;;;;;;;;;;;18.30;99.90;;;;;;4969469;28;20385;-58
2023/08/04 10:13:33;;;;;;;;;;;18.40;99.90;;;;;;4959871;28;19922;-58
2023/08/04 10:16:01;;;;;;;;;;;18.40;99.90;;;;;;4984299;28;19932;-57
2023/08/04 10:18:47;;;;;;;;;;;18.40;99.90;;;;;;4969657;28;20362;-58
2023/08/04 10:21:13;;;;;;;;;;;18.40;99.90;;;;;;4969622;28;19926;-58
2023/08/04 10:23:40;;;;;;;;;;;18.40;99.90;;;;;;4969404;28;19925;-58
2023/08/04 10:26:08;;;;;;;;;;;18.40;99.90;;;;;;4969355;28;19958;-57
2023/08/04 10:28:35;;;;;;;;;;;18.40;99.90;;;;;;4967751;28;19929;-58
2023/08/04 10:31:03;;;;;;;;;;;18.40;99.90;;;;;;4968081;28;20407;-57
2023/08/04 10:33:30;;;;;;;;;;;18.40;99.90;;;;;;4968858;28;20383;-60
2023/08/04 10:36:09;;;;;;;;;;;18.50;99.90;;;;;;4969185;28;19921;-58
2023/08/04 10:38:46;;;;;;;;;;;18.40;99.90;;;;;;4971661;28;19936;-58
2023/08/04 10:41:12;;;;;;;;;;;18.40;99.90;;;;;;4973603;28;19961;-58
2023/08/04 10:43:39;;;;;;;;;;;18.40;99.90;;;;;;4974183;28;19922;-57
2023/08/04 10:46:10;;;;;;;;;;;18.40;99.90;;;;;;4972881;28;19922;-54
2023/08/04 10:48:39;;;;;;;;;;;18.40;99.90;;;;;;4974199;28;19922;-58
2023/08/04 10:51:07;;;;;;;;;;;18.30;99.90;;;;;;4971604;28;20384;-58
2023/08/04 10:53:34;;;;;;;;;;;18.40;99.90;;;;;;4972229;28;19922;-57
2023/08/04 10:56:02;;;;;;;;;;;18.20;99.90;;;;;;4971666;28;19922;-58
2023/08/04 10:58:29;;;;;;;;;;;18.20;99.90;;;;;;4972167;28;19947;-58
2023/08/04 11:00:56;;;;;;;;;;;18.20;99.90;;;;;;4973000;28;19977;-58
2023/08/04 11:03:25;;;;;;;;;;;18.30;99.90;;;;;;4961130;28;19922;-58
2023/08/04 11:05:52;;;;;;;;;;;18.30;99.90;;;;;;4972795;28;19933;-57
2023/08/04 11:08:19;;;;;;;;;;;18.10;99.90;;;;;;4973252;28;19973;-60
2023/08/04 11:10:47;;;;;;;;;;;18.10;99.90;;;;;;4972136;28;19945;-55
2023/08/04 11:13:18;;;;;;;;;;;18.20;99.90;;;;;;4971601;28;20301;-56
2023/08/04 11:15:45;;;;;;;;;;;18.30;99.90;;;;;;4972658;28;19985;-58
2023/08/04 11:18:16;;;;;;;;;;;18.40;99.90;;;;;;4973107;28;19970;-56
2023/08/04 11:20:42;;;;;;;;;;;18.40;99.90;;;;;;4972123;28;19922;-58
2023/08/04 11:23:10;;;;;;;;;;;18.40;99.90;;;;;;4972474;28;19988;-59
2023/08/04 11:25:38;;;;;;;;;;;18.40;99.90;;;;;;4972433;28;20162;-56
2023/08/04 11:28:05;;;;;;;;;;;18.50;99.90;;;;;;4972542;28;19928;-57
2023/08/04 11:30:35;;;;;;;;;;;18.50;99.90;;;;;;4972134;28;19976;-57
2023/08/04 11:33:02;;;;;;;;;;;18.50;99.90;;;;;;4972308;28;19950;-56
2023/08/04 11:35:31;;;;;;;;;;;18.50;99.90;;;;;;4972365;28;19945;-57
2023/08/04 11:37:57;;;;;;;;;;;18.60;99.90;;;;;;4972465;28;19932;-57
2023/08/04 11:40:24;;;;;;;;;;;18.70;99.90;;;;;;4972206;28;19928;-56
2023/08/04 11:42:51;;;;;;;;;;;18.90;99.90;;;;;;4971194;28;20301;-57
2023/08/04 11:45:18;;;;;;;;;;;18.90;99.90;;;;;;4972289;28;20397;-58
2023/08/04 11:47:45;;;;;;;;;;;18.90;99.90;;;;;;4971745;28;19985;-58
2023/08/04 11:50:12;;;;;;;;;;;19.00;99.90;;;;;;4971643;28;19950;-58
2023/08/04 11:52:39;;;;;;;;;;;19.00;99.90;;;;;;4971908;28;19922;-58
2023/08/04 11:55:05;;;;;;;;;;;19.00;99.90;;;;;;4972276;28;19932;-57
2023/08/04 11:57:32;;;;;;;;;;;19.20;99.90;;;;;;4966043;28;19928;-59
2023/08/04 12:00:00;;;;;;;;;;;19.30;99.90;;;;;;4968766;28;19977;-58
2023/08/04 12:02:28;;;;;;;;;;;19.20;99.90;;;;;;4971558;28;20389;-57
2023/08/04 12:05:06;;;;;;;;;;;19.20;99.90;;;;;;4972168;28;19929;-59
2023/08/04 12:07:33;;;;;;;;;;;19.40;99.90;;;;;;4971560;28;20016;-59
2023/08/04 12:10:00;;;;;;;;;;;19.80;99.90;;;;;;4971927;28;19936;-58
2023/08/04 12:12:36;;;;;;;;;;;19.90;99.90;;;;;;4965148;28;20016;-58
2023/08/04 12:15:04;;;;;;;;;;;20.00;99.90;;;;;;4966171;28;20424;-59
2023/08/04 12:17:37;;;;;;;;;;;20.20;99.90;;;;;;4971729;28;19930;-59
2023/08/04 12:20:06;;;;;;;;;;;20.10;99.90;;;;;;4971577;28;19922;-58
2023/08/04 12:22:39;;;;;;;;;;;19.90;99.90;;;;;;4970070;28;19972;-59
2023/08/04 12:25:06;;;;;;;;;;;20.00;99.90;;;;;;4971630;28;19922;-58
2023/08/04 12:27:33;;;;;;;;;;;20.20;99.90;;;;;;4971151;28;19922;-58
2023/08/04 12:30:00;;;;;;;;;;;20.40;99.90;;;;;;4971890;28;19988;-58
2023/08/04 12:32:27;;;;;;;;;;;20.40;99.90;;;;;;4969534;28;19929;-59
2023/08/04 12:34:55;;;;;;;;;;;20.30;99.90;;;;;;4971687;28;19922;-58
2023/08/04 12:37:22;;;;;;;;;;;20.20;99.90;;;;;;4971448;28;19929;-58
2023/08/04 12:39:49;;;;;;;;;;;20.20;99.90;;;;;;4971299;28;19976;-58
2023/08/04 12:42:15;;;;;;;;;;;20.30;99.90;;;;;;4970890;28;19922;-58
2023/08/04 12:44:42;;;;;;;;;;;20.30;99.90;;;;;;4971392;28;19977;-58
2023/08/04 12:47:10;;;;;;;;;;;20.60;99.90;;;;;;4971120;28;19922;-57
2023/08/04 12:49:37;;;;;;;;;;;20.60;99.90;;;;;;4970174;28;19985;-60
2023/08/04 12:52:04;;;;;;;;;;;20.60;99.90;;;;;;4970862;28;19930;-60
2023/08/04 12:54:30;;;;;;;;;;;20.80;99.90;;;;;;4970776;28;19969;-58
2023/08/04 12:56:57;;;;;;;;;;;20.80;99.90;;;;;;4970995;28;20036;-59
2023/08/04 12:59:24;;;;;;;;;;;20.90;99.90;;;;;;4971404;28;20427;-58
2023/08/04 13:01:50;;;;;;;;;;;21.10;99.90;;;;;;4970264;28;20332;-59
2023/08/04 13:04:17;;;;;;;;;;;21.00;99.90;;;;;;4970355;28;19993;-58
2023/08/04 13:06:44;;;;;;;;;;;20.90;99.90;;;;;;4970682;28;19929;-58
2023/08/04 13:09:11;;;;;;;;;;;21.00;99.90;;;;;;4970403;28;19930;-57
2023/08/04 13:11:38;;;;;;;;;;;20.90;99.90;;;;;;4970555;28;19984;-58
2023/08/04 13:14:05;;;;;;;;;;;20.80;99.90;;;;;;4970282;28;20340;-59
2023/08/04 13:16:31;;;;;;;;;;;20.60;99.90;;;;;;4970825;28;19928;-57
2023/08/04 13:18:58;;;;;;;;;;;20.80;99.90;;;;;;4957321;28;19942;-60
2023/08/04 13:21:25;;;;;;;;;;;20.80;99.90;;;;;;4969501;28;20009;-59
2023/08/04 13:23:52;;;;;;;;;;;20.90;99.90;;;;;;4970091;28;20165;-59
2023/08/04 13:26:18;;;;;;;;;;;20.90;99.90;;;;;;4970348;28;20424;-58
2023/08/04 13:28:45;;;;;;;;;;;21.00;99.90;;;;;;4970022;28;20340;-59
2023/08/04 13:31:12;;;;;;;;;;;20.90;99.90;;;;;;4985009;28;19922;-59
2023/08/04 13:33:39;;;;;;;;;;;21.20;99.90;;;;;;4970344;28;20310;-59
2023/08/04 13:36:05;;;;;;;;;;;21.50;99.90;;;;;;4970033;28;19922;-58
2023/08/04 13:38:32;;;;;;;;;;;21.60;99.90;;;;;;4965833;28;19925;-59
2023/08/04 13:40:59;;;;;;;;;;;21.80;99.90;;;;;;4969577;28;19970;-60
2023/08/04 13:43:26;;;;;;;;;;;22.00;99.90;;;;;;4969924;28;19929;-59
2023/08/04 13:45:53;;;;;;;;;;;22.10;99.90;;;;;;4969572;28;19922;-58
2023/08/04 13:48:19;;;;;;;;;;;22.30;99.90;;;;;;4970563;28;19976;-59
2023/08/04 13:50:46;;;;;;;;;;;22.20;99.90;;;;;;4969606;28;19922;-58
2023/08/04 13:53:13;;;;;;;;;;;22.10;99.90;;;;;;4970211;28;20384;-58
2023/08/04 13:55:40;;;;;;;;;;;21.70;99.90;;;;;;4968271;28;19922;-58
2023/08/04 13:58:07;;;;;;;;;;;21.50;99.90;;;;;;4970184;28;20000;-59
2023/08/04 14:00:34;;;;;;;;;;;21.60;99.90;;;;;;4969738;28;20251;-58
2023/08/04 14:03:01;;;;;;;;;;;21.80;99.90;;;;;;4969807;28;19936;-58
2023/08/04 14:05:27;;;;;;;;;;;21.90;99.90;;;;;;4969764;28;20381;-57
2023/08/04 14:07:54;;;;;;;;;;;21.80;99.90;;;;;;4969805;28;19926;-58
2023/08/04 14:10:21;;;;;;;;;;;21.80;99.90;;;;;;4969656;28;19922;-56
2023/08/04 14:12:48;;;;;;;;;;;22.00;99.90;;;;;;4984010;28;19929;-58
2023/08/04 14:15:15;;;;;;;;;;;21.80;99.90;;;;;;4969534;28;19922;-58